createdAt,value
2023-05-06T00:01:37.668Z,100321.50
2023-05-06T00:04:09.915Z,100302.16
2023-05-06T00:09:24.914Z,100302.28
2023-05-06T00:11:55.786Z,100385.25
2023-05-06T00:14:24.862Z,100346.88
2023-05-06T00:17:02.423Z,100287.13
2023-05-06T00:19:35.690Z,100325.63
2023-05-06T00:22:07.263Z,100391.47
2023-05-06T00:24:34.938Z,100392.25
2023-05-06T00:27:04.518Z,100372.06
2023-05-06T00:29:35.494Z,100385.75
2023-05-06T00:32:06.519Z,100315.63
2023-05-06T00:34:40.350Z,100358.75
2023-05-06T00:37:13.846Z,100332.47
2023-05-06T00:39:45.085Z,100292.16
2023-05-06T00:42:30.673Z,100278.78
2023-05-06T00:45:06.469Z,100382.75
2023-05-06T00:47:37.762Z,100350.19
2023-05-06T00:50:07.657Z,100348.94
2023-05-06T00:52:39.076Z,100385.09
2023-05-06T00:55:10.847Z,100298.28
2023-05-06T00:57:42.206Z,100357.94
2023-05-06T01:00:12.509Z,100313.59
2023-05-06T01:02:51.163Z,100390.38
2023-05-06T01:05:26.813Z,100374.59
2023-05-06T01:08:20.558Z,100384.75
2023-05-06T01:11:17.448Z,100382.88
2023-05-06T01:14:06.811Z,100382.88
2023-05-06T01:16:50.387Z,100339.38
2023-05-06T01:22:41.561Z,100321.88
2023-05-06T01:25:31.352Z,100330.34
2023-05-06T01:28:02.653Z,100336.34
2023-05-06T01:30:46.618Z,100283.09
2023-05-06T01:33:42.984Z,100381.13
2023-05-06T01:36:30.708Z,100375.44
2023-05-06T01:39:40.908Z,100376.50
2023-05-06T01:42:14.788Z,100380.78
2023-05-06T01:44:46.750Z,100382.59
2023-05-06T01:47:16.419Z,100326.94
2023-05-06T01:49:43.909Z,100298.31
2023-05-06T01:52:11.040Z,100387.41
2023-05-06T01:54:44.437Z,100295.88
2023-05-06T01:57:12.324Z,100324.09
2023-05-06T01:59:46.654Z,100386.28
2023-05-06T02:02:16.775Z,100391.53
2023-05-06T02:04:45.422Z,100390.06
2023-05-06T02:07:17.220Z,100399.44
2023-05-06T02:09:44.536Z,100397.31
2023-05-06T02:12:15.464Z,100386.56
2023-05-06T02:14:42.454Z,100315.91
2023-05-06T02:17:13.009Z,100413.53
2023-05-06T02:19:48.900Z,100419.03
2023-05-06T02:22:23.941Z,100411.28
2023-05-06T02:24:52.621Z,100370.69
2023-05-06T02:27:30.701Z,100322.94
2023-05-06T02:30:04.510Z,100416.34
2023-05-06T02:35:27.364Z,100411.22
2023-05-06T02:37:55.116Z,100420.41
2023-05-06T02:40:26.795Z,100381.13
2023-05-06T02:42:54.209Z,100375.41
2023-05-06T02:45:28.896Z,100417.72
2023-05-06T02:47:56.405Z,100413.25
2023-05-06T02:50:34.882Z,100315.88
2023-05-06T02:53:06.019Z,100414.75
2023-05-06T02:55:33.137Z,100417.41
2023-05-06T02:57:59.910Z,100317.84
2023-05-06T03:00:34.464Z,100322.06
2023-05-06T03:03:02.080Z,100413.69
2023-05-06T03:05:31.375Z,100406.53
2023-05-06T03:07:58.777Z,100414.09
2023-05-06T03:10:31.684Z,100418.78
2023-05-06T03:12:59.548Z,100425.22
2023-05-06T03:15:41.089Z,100325.41
2023-05-06T03:18:09.674Z,100411.50
2023-05-06T03:20:43.392Z,100429.75
2023-05-06T03:23:10.156Z,100418.72
2023-05-06T03:25:40.064Z,100388.78
2023-05-06T03:28:08.551Z,100392.38
2023-05-06T03:30:35.497Z,100431.28
2023-05-06T03:33:03.003Z,100369.84
2023-05-06T03:35:30.457Z,100334.19
2023-05-06T03:37:58.410Z,100441.31
2023-05-06T03:40:27.814Z,100432.25
2023-05-06T03:42:58.954Z,100421.69
2023-05-06T03:45:29.925Z,100380.22
2023-05-06T03:47:58.551Z,100432.78
2023-05-06T03:50:29.671Z,100427.38
2023-05-06T03:58:27.303Z,100429.09
2023-05-06T04:00:56.417Z,100427.16
2023-05-06T04:03:30.377Z,100425.66
2023-05-06T04:06:01.063Z,100412.47
2023-05-06T04:08:39.764Z,100362.06
2023-05-06T04:11:11.872Z,100401.13
2023-05-06T04:13:40.057Z,100443.31
2023-05-06T04:16:10.370Z,100442.00
2023-05-06T04:18:37.818Z,100437.34
2023-05-06T04:21:08.740Z,100388.94
2023-05-06T04:23:38.359Z,100365.31
2023-05-06T04:26:16.635Z,100438.31
2023-05-06T04:28:51.482Z,100432.88
2023-05-06T04:31:20.415Z,100379.72
2023-05-06T04:33:47.365Z,100429.34
2023-05-06T04:36:15.155Z,100417.41
2023-05-06T04:38:46.138Z,100368.44
2023-05-06T04:41:20.381Z,100368.81
2023-05-06T04:46:34.598Z,100413.38
2023-05-06T04:49:01.653Z,100397.28
2023-05-06T04:51:34.181Z,100457.28
2023-05-06T04:54:02.938Z,100412.63
2023-05-06T04:56:32.728Z,100452.94
2023-05-06T04:59:07.963Z,100456.94
2023-05-06T05:01:37.270Z,100460.72
2023-05-06T05:04:09.072Z,100415.19
2023-05-06T05:06:50.625Z,100362.72
2023-05-06T05:09:26.981Z,100409.31
2023-05-06T05:11:56.806Z,100398.28
2023-05-06T05:14:27.643Z,100421.84
2023-05-06T05:16:55.238Z,100370.25
2023-05-06T05:19:29.040Z,100371.28
2023-05-06T05:21:58.239Z,100385.53
2023-05-06T05:24:29.946Z,100465.47
2023-05-06T05:27:00.837Z,100472.38
2023-05-06T05:29:35.475Z,100472.06
2023-05-06T05:32:02.301Z,100471.75
2023-05-06T05:34:39.263Z,100467.53
2023-05-06T05:37:20.173Z,100485.44
2023-05-06T05:39:50.383Z,100482.84
2023-05-06T05:42:23.109Z,100485.94
2023-05-06T05:44:55.591Z,100449.75
2023-05-06T05:47:26.553Z,100485.16
2023-05-06T05:50:00.073Z,100431.53
2023-05-06T05:52:32.552Z,100488.94
2023-05-06T05:55:02.095Z,100489.47
2023-05-06T05:57:31.222Z,100493.88
2023-05-06T06:00:11.614Z,100492.25
2023-05-06T06:02:48.193Z,100485.47
2023-05-06T06:05:21.870Z,100488.50
2023-05-06T06:07:57.827Z,100389.50
2023-05-06T06:10:27.072Z,100494.78
2023-05-06T06:12:55.402Z,100493.88
2023-05-06T06:15:24.843Z,100397.88
2023-05-06T06:18:00.201Z,100495.00
2023-05-06T06:20:41.668Z,100439.97
2023-05-06T06:23:11.845Z,100503.50
2023-05-06T06:25:42.229Z,100463.03
2023-05-06T06:28:11.680Z,100502.41
2023-05-06T06:30:39.472Z,100504.22
2023-05-06T06:33:09.003Z,100502.53
2023-05-06T06:35:37.552Z,100496.53
2023-05-06T06:38:11.757Z,100436.56
2023-05-06T06:40:54.530Z,100413.72
2023-05-06T06:43:22.396Z,100493.78
2023-05-06T06:45:49.692Z,100471.00
2023-05-06T06:48:26.570Z,100512.66
2023-05-06T06:51:00.408Z,100443.31
2023-05-06T06:59:14.391Z,100502.66
2023-05-06T07:01:47.173Z,100484.94
2023-05-06T07:04:26.575Z,100475.41
2023-05-06T07:07:36.221Z,100496.59
2023-05-06T07:10:06.347Z,100476.81
2023-05-06T07:12:34.380Z,100458.09
2023-05-06T07:15:09.155Z,100424.25
2023-05-06T07:17:43.446Z,100506.22
2023-05-06T07:20:14.253Z,100463.81
2023-05-06T07:22:44.313Z,100448.84
2023-05-06T07:25:12.676Z,100464.72
2023-05-06T07:27:45.817Z,100464.63
2023-05-06T07:30:14.461Z,100496.56
2023-05-06T07:32:41.804Z,100455.84
2023-05-06T07:35:11.211Z,100460.13
2023-05-06T07:37:40.560Z,100512.88
2023-05-06T07:43:01.120Z,100518.59
2023-05-06T07:45:41.026Z,100501.25
2023-05-06T07:48:11.257Z,100515.41
2023-05-06T07:50:37.949Z,100523.28
2023-05-06T07:53:06.019Z,100515.78
2023-05-06T07:55:34.557Z,100497.34
2023-05-06T07:58:04.708Z,100499.31
2023-05-06T08:00:36.732Z,100496.03
2023-05-06T08:03:07.427Z,100522.44
2023-05-06T08:08:25.931Z,100515.97
2023-05-06T08:10:57.862Z,100518.47
2023-05-06T08:16:17.940Z,100518.84
2023-05-06T08:19:07.759Z,100501.53
2023-05-06T08:21:45.257Z,100468.22
2023-05-06T08:24:14.159Z,100493.81
2023-05-06T08:26:42.947Z,100530.31
2023-05-06T08:31:54.682Z,100505.09
2023-05-06T08:34:30.204Z,100488.44
2023-05-06T08:40:34.096Z,100485.66
2023-05-06T08:43:22.511Z,100525.13
2023-05-06T08:45:52.782Z,100528.78
2023-05-06T08:48:20.570Z,100526.09
2023-05-06T08:50:49.036Z,100525.13
2023-05-06T08:53:18.537Z,100509.88
2023-05-06T08:55:50.989Z,100518.59
2023-05-06T08:58:26.316Z,100520.13
2023-05-06T09:00:56.015Z,100519.63
2023-05-06T09:03:26.848Z,100520.03
2023-05-06T09:05:55.167Z,100506.44
2023-05-06T09:08:29.520Z,100522.56
2023-05-06T09:11:03.306Z,100512.88
2023-05-06T09:13:31.568Z,100518.34
2023-05-06T09:16:01.644Z,100513.00
2023-05-06T09:18:37.342Z,100520.88
2023-05-06T09:21:09.927Z,100513.44
2023-05-06T09:23:48.190Z,100516.41
2023-05-06T09:26:20.271Z,100488.66
2023-05-06T09:28:48.751Z,100513.63
2023-05-06T09:34:05.721Z,100503.28
2023-05-06T09:36:35.420Z,100508.25
2023-05-06T09:39:02.890Z,100509.91
2023-05-06T09:41:51.117Z,100503.44
2023-05-06T09:44:19.333Z,100501.16
2023-05-06T09:46:51.585Z,100507.16
2023-05-06T09:52:06.203Z,100486.28
2023-05-06T09:54:44.902Z,100494.03
2023-05-06T10:02:50.598Z,100477.16
2023-05-06T10:08:40.089Z,100491.72
2023-05-06T10:14:04.008Z,100485.00
2023-05-06T10:19:51.855Z,100456.91
2023-05-06T10:28:43.434Z,100443.16
2023-05-06T10:31:16.820Z,100453.06
2023-05-06T10:36:39.664Z,100464.44
2023-05-06T10:41:54.697Z,100454.50
2023-05-06T10:45:07.056Z,100460.47
2023-05-06T10:47:54.979Z,100449.09
2023-05-06T10:53:20.032Z,100447.13
2023-05-06T10:55:47.052Z,100448.69
2023-05-06T10:58:17.512Z,100445.09
2023-05-06T11:10:03.897Z,100439.06
2023-05-06T11:13:28.287Z,100437.75
2023-05-06T11:18:53.942Z,100396.38
2023-05-06T11:27:07.921Z,100400.22
2023-05-06T11:33:17.454Z,100436.00
2023-05-06T11:35:51.071Z,100345.97
2023-05-06T11:42:27.765Z,100382.13
2023-05-06T11:48:12.001Z,100407.69
2023-05-06T11:51:10.851Z,100391.75
2023-05-06T12:09:06.424Z,100398.25
2023-05-06T12:11:36.600Z,100419.78
2023-05-06T12:14:09.885Z,100419.06
2023-05-06T12:16:48.717Z,100412.88
2023-05-06T12:33:44.760Z,100367.50
2023-05-06T12:39:12.312Z,100421.31
2023-05-06T12:41:44.963Z,100426.69
2023-05-06T12:44:41.646Z,100414.09
2023-05-06T12:47:21.866Z,100361.13
2023-05-06T12:50:00.802Z,100413.09
2023-05-06T12:58:19.373Z,100412.63
2023-05-06T13:01:03.232Z,100397.91
2023-05-06T13:03:39.014Z,100361.84
2023-05-06T13:09:15.297Z,100361.44
2023-05-06T13:17:21.477Z,100400.63
2023-05-06T13:19:52.158Z,100387.53
2023-05-06T13:22:21.190Z,100395.06
2023-05-06T13:25:04.545Z,100371.25
2023-05-06T13:27:38.724Z,100368.69
2023-05-06T13:30:15.387Z,100312.41
2023-05-06T13:38:27.121Z,100378.66
2023-05-06T13:40:54.775Z,100380.22
2023-05-06T13:43:30.198Z,100357.22
2023-05-06T13:46:00.948Z,100337.13
2023-05-06T13:48:44.773Z,100358.56
2023-05-06T13:51:16.925Z,100364.22
2023-05-06T13:53:53.121Z,100327.31
2023-05-06T13:56:20.521Z,100336.72
2023-05-06T13:58:53.918Z,100364.16
2023-05-06T14:01:30.762Z,100311.75
2023-05-06T14:03:57.834Z,100306.78
2023-05-06T14:06:27.026Z,100320.59
2023-05-06T14:09:00.458Z,100326.50
2023-05-06T14:11:28.811Z,100349.47
2023-05-06T14:19:20.012Z,100340.97
2023-05-06T14:24:43.657Z,100323.03
2023-05-06T14:27:41.498Z,100335.69
2023-05-06T14:30:22.296Z,100303.69
2023-05-06T14:35:38.620Z,100296.50
2023-05-06T14:38:08.597Z,100328.88
2023-05-06T14:40:37.348Z,100323.53
2023-05-06T14:43:13.035Z,100321.00
2023-05-06T14:48:24.604Z,100325.47
2023-05-06T14:50:55.684Z,100249.19
2023-05-06T14:56:49.544Z,100293.97
2023-05-06T14:59:47.723Z,100325.41
2023-05-06T15:02:32.488Z,100336.19
2023-05-06T15:05:04.246Z,100264.53
2023-05-06T15:07:39.713Z,100248.25
2023-05-06T15:10:18.946Z,100303.88
2023-05-06T15:12:51.078Z,100284.63
2023-05-06T15:15:22.193Z,100305.94
2023-05-06T15:18:10.356Z,100343.06
2023-05-06T15:20:47.008Z,100335.34
2023-05-06T15:23:15.950Z,100318.00
2023-05-06T15:25:57.545Z,100332.94
2023-05-06T15:28:32.485Z,100337.97
2023-05-06T15:31:13.005Z,100342.13
2023-05-06T15:40:03.213Z,100344.94
2023-05-06T15:42:35.139Z,100335.28
2023-05-06T16:05:28.968Z,100341.00
2023-05-06T16:11:06.521Z,100299.38
2023-05-06T16:41:28.731Z,100323.50
2023-05-06T16:47:17.331Z,100313.72
2023-05-06T16:49:55.890Z,100276.66
2023-05-06T16:58:06.711Z,100224.03
2023-05-06T17:01:02.906Z,100309.72
2023-05-06T17:04:02.653Z,100308.09
2023-05-06T17:46:20.604Z,100255.84
2023-05-06T17:51:36.701Z,100287.59
2023-05-06T17:56:56.447Z,100303.63
2023-05-06T18:08:07.068Z,100310.41
2023-05-06T18:10:36.770Z,100280.22
2023-05-06T18:13:08.981Z,100311.53
2023-05-06T18:15:52.512Z,100229.44
2023-05-06T18:18:34.747Z,100310.22
2023-05-06T18:21:08.411Z,100322.78
2023-05-06T18:24:10.239Z,100321.25
2023-05-06T18:32:31.886Z,100321.03
2023-05-06T18:38:43.664Z,100321.16
2023-05-06T18:44:36.657Z,100257.53
2023-05-06T18:47:15.841Z,100313.53
2023-05-06T18:49:49.559Z,100311.94
2023-05-06T18:52:26.837Z,100318.59
2023-05-06T18:54:55.229Z,100324.22
2023-05-06T18:57:33.833Z,100315.31
2023-05-06T19:00:15.083Z,100326.28
2023-05-06T19:03:03.318Z,100279.81
2023-05-06T19:05:40.120Z,100323.38
2023-05-06T19:08:21.424Z,100243.84
2023-05-06T19:10:56.383Z,100346.25
2023-05-06T19:16:21.499Z,100350.28
2023-05-06T19:19:22.122Z,100351.13
2023-05-06T19:21:56.924Z,100347.47
2023-05-06T19:30:04.049Z,100353.16
2023-05-06T19:32:44.622Z,100353.78
2023-05-06T19:35:40.464Z,100351.63
2023-05-06T19:38:47.893Z,100316.25
2023-05-06T19:41:25.927Z,100346.38
2023-05-06T19:46:47.268Z,100351.84
2023-05-06T20:15:55.042Z,100293.25
2023-05-06T20:27:47.711Z,100384.13
2023-05-06T20:36:05.704Z,100301.09
2023-05-06T20:38:58.787Z,100376.53
2023-05-06T20:44:32.916Z,100291.31
2023-05-06T20:50:04.980Z,100377.53
2023-05-06T20:52:54.593Z,100377.13
2023-05-06T20:55:31.621Z,100363.25
2023-05-06T21:03:56.930Z,100314.19
2023-05-06T21:10:07.087Z,100371.63
2023-05-06T21:13:08.023Z,100332.25
2023-05-06T21:18:29.277Z,100368.53
2023-05-06T21:20:59.890Z,100389.69
2023-05-06T21:23:40.163Z,100388.75
2023-05-06T21:26:17.018Z,100339.25
2023-05-06T21:28:57.543Z,100305.66
2023-05-06T21:34:08.594Z,100295.75
2023-05-06T21:36:39.247Z,100388.56
2023-05-06T21:39:10.837Z,100327.91
2023-05-06T21:41:39.707Z,100325.78
2023-05-06T21:44:12.236Z,100359.38
2023-05-06T21:47:02.790Z,100290.78
2023-05-06T21:49:33.653Z,100387.94
2023-05-06T21:57:50.384Z,100308.06
2023-05-06T22:03:15.903Z,100375.16
2023-05-06T22:05:56.313Z,100360.38
2023-05-06T22:16:43.847Z,100366.16
2023-05-06T22:22:07.046Z,100374.41
2023-05-06T22:27:29.538Z,100357.66
2023-05-06T22:30:21.332Z,100323.66
2023-05-06T22:33:13.770Z,100360.44
2023-05-06T22:35:44.978Z,100335.00
2023-05-06T22:38:24.282Z,100333.94
2023-05-06T22:40:55.477Z,100309.59
2023-05-06T22:43:33.276Z,100263.88
2023-05-06T22:46:07.714Z,100282.16
2023-05-06T22:48:47.292Z,100350.59
2023-05-06T22:51:24.844Z,100270.28
2023-05-06T22:54:08.925Z,100268.16
2023-05-06T22:59:51.599Z,100358.06
2023-05-06T23:05:31.561Z,100277.03
2023-05-06T23:08:16.049Z,100339.50
2023-05-06T23:10:52.043Z,100362.75
2023-05-06T23:16:04.141Z,100322.84
2023-05-06T23:18:34.033Z,100366.00
2023-05-06T23:21:10.602Z,100310.38
2023-05-06T23:23:37.604Z,100363.75
2023-05-06T23:26:09.154Z,100360.44
2023-05-06T23:28:49.040Z,100303.34
2023-05-06T23:31:16.713Z,100315.59
2023-05-06T23:33:47.193Z,100293.09
2023-05-06T23:39:15.341Z,100375.75
2023-05-06T23:42:03.748Z,100342.44
2023-05-06T23:44:39.373Z,100370.88
2023-05-06T23:47:17.320Z,100373.53
2023-05-06T23:50:01.355Z,100329.81
2023-05-06T23:52:30.518Z,100370.41
2023-05-06T23:55:04.002Z,100303.66
2023-05-06T23:57:42.497Z,100328.66
